AirNav   Air Wisconsin pilot careers
 
 536 users online  

NK39 One Police Plaza Heliport
New York, New York, USA

GOING TO NEW YORK?


FAA INFORMATION EFFECTIVE 18 JULY 2019

Location

FAA Identifier: NK39
Lat/Long: 40-42-45.3680N / 073-59-58.5010W
40-42.756133N / 073-59.975017W
40.7126022 / -73.9995836
(estimated)
Elevation: 244 ft. / 74 m (estimated)
Variation: 13W (1985)
Time zone: UTC -4 (UTC -5 during Standard Time)
Zip code: 10038

Heliport Operations

Heliport use: Private use. Permission required prior to landing
Activation date: 06/1981
Control tower: no
ARTCC: NEW YORK CENTER
FSS: NEW YORK FLIGHT SERVICE STATION
Attendance: UNATNDD
Wind indicator: no
Segmented circle: no
Lights: FOR PERIMETER LGTS CALL 212-692-1220.

Heliport Communications

WX AWOS-3PT at JRB (0.8 nm SW): 128.175 (212-425-1534)
WX ASOS at LGA (7 nm NE): PHONE 718-672-6317
WX ASOS at EWR (8 nm W): PHONE 973-621-2892
WX ASOS at TEB (9 nm N): 132.025 (201-393-0855)
WX ASOS at JFK (11 nm SE): PHONE 718-656-0956
WX AWOS-3 at LDJ (13 nm SW): 124.025 (908-862-7383)
WX ASOS at CDW (16 nm NW): 135.5 (973-575-4417)
WX AWOS-3 at MMU (20 nm W): PHONE 973-290-0135

Nearby radio navigation aids

VOR radial/distance  VOR name  Freq  Var
LGAr246/7.3LA GUARDIA VOR/DME113.1012W
CRIr332/7.7CANARSIE VOR/DME112.3011W
TEBr172/8.6TETERBORO VOR/DME108.4011W
JFKr307/11.4KENNEDY VOR/DME115.9012W
COLr028/25.1COLTS NECK VOR/DME115.4011W
DPKr273/32.0DEER PARK VOR/DME117.7012W
SAXr142/32.4SPARTA VORTAC115.7011W
SBJr087/34.7SOLBERG VOR/DME112.9010W
BWZr109/37.7BROADWAY VOR/DME114.2011W
RBVr046/38.1ROBBINSVILLE VORTAC113.8010W
CMKr221/39.0CARMEL VOR/DME116.6012W

 
NDB name  Hdg/Dist  Freq  Var  ID
TORBY144/8.221412WTE - .
CHATHAM108/19.625413WCAT -.-. .- -
BABYLON289/28.127514WBBN -... -... -.

Heliport Services

Runway Information

Helipad H1

Dimensions: 96 x 96 ft. / 29 x 29 m
Surface: concrete, in good condition
HELIPAD LCTD ON ROOFTOP OF TWENTY STORY BLDG.
Runway edge lights: PERI
Latitude: 40-42.756133N
Longitude: 073-59.975017W
Elevation: 244.0 ft.
Traffic pattern: leftleft

Heliport Ownership and Management from official FAA records

Ownership: Publicly-owned
Owner: CITY OF NY POLICE DEPT
ONE POLICE PLAZA
NEW YORK, NY 10013
Phone (718) 692-1220
Manager: COMMANDING OFFICER - AVIATION UNIT
NYPD AVIATION UNT FLOYD BENNETT FLD
BROOKLYN, NY 11234
Phone 718-692-1220
CMD AVN UNIT.

Additional Remarks

NYC POLICE EMERGENCY USE ONLY.
FOR CD CTC NEW YORK APCH AT 800-645-3206.

Instrument Procedures

There are no published instrument procedures at NK39.

Some nearby airports with instrument procedures:

KJRB - Downtown Manhattan/Wall Street Heliport (1 nm SW)
6N5 - East 34th Street Heliport (2 nm NE)
KJRA - West 30th St Heliport (3 nm N)
KLGA - LaGuardia Airport (7 nm NE)
KEWR - Newark Liberty International Airport (8 nm W)
KTEB - Teterboro Airport (9 nm N)
KJFK - John F Kennedy International Airport (11 nm SE)
KLDJ - Linden Airport (13 nm SW)
KCDW - Essex County Airport (16 nm NW)
KMMU - Morristown Municipal Airport (20 nm W)
 
Loc | Ops | Rwys | IFR | FBO | Links
Com | Nav | Svcs | Stats | Notes
Area around NK39 (One Police Plaza Heliport)
 
Road maps at: MapQuest Bing Google
 
Aerial photo
No photo
 
Sectional chart

 
Airport distance calculator
Flying to One Police Plaza Heliport? Find the distance to fly.

From to NK39

Sunrise and sunset
Times for 24-Jul-2019
 Local
(UTC-4)
 Zulu
(UTC)
Morning civil twilight05:1509:15
Sunrise05:4609:46
Sunset20:1900:19
Evening civil twilight20:5000:50

Current date and time
Zulu (UTC)  24-Jul-2019 05:41:10
Local (UTC-4)  24-Jul-2019 01:41:10
 
METAR
KJRB 240522Z AUTO 07006KT 10SM FEW016 BKN041 OVC085 22/19 A2988 RMK AO2
KNYC 
4nm N 
240451Z AUždžO 00000KT 10SM -RA OVC085 21/18 A2993 RMK AO2 RAB25 SLP124 P0000 T02060183 402330194 $
KLGA 
7nm NE 
240451Z 05003KT 10SM -RA FEW015 OVC080 21/18 A2989 RMK AO2 RAB49 SLP121 P0000 T02110183 402500200
KEWR 
8nm W 
240502Z 02007KT 10SM -RA SCT018 BKN036 OVC080 21/18 A2989 RMK AO2 P0000 T02060183
KTEB 
10nm N 
240451Z 33004KT 10SM -RA OVC085 21/18 A2989 RMK AO2 RAB16 SLP122 P0001 T02110183 402440194
KJFK 
12nm SE 
240451Z 06004KT 9SM -RA FEW011 OVC065 21/21 A2990 RMK AO2 RAB44 SLP124 P0000 T02060206 402440194
KLDJ 
13nm SW 
240455Z AUTO 00000KT 10SM DZ OVC016 21/18 A2990 RMK AO2 T02110184
KCDW 
16nm NW 
240453Z 00000KT 10SM OVC100 21/20 A2991 RMK AO2 SLP131 T02110200 402500194 $
KMMU 
19nm W 
240515Z AUTO 34003KT 10SM SCT110 20/20 A2989 RMK AO2
TAF
KLGA 
7nm NE 
240116Z 2401/2506 06007KT P6SM VCSH FEW025 SCT045 OVC070 FM240800 06007KT P6SM BKN100 FM241000 03009KT P6SM SCT250 FM241600 05009KT P6SM FEW050 SCT250 FM241800 05009KT P6SM FEW050 SCT250 FM242100 15008KT P6SM FEW050 SCT250 FM250000 18004KT P6SM SCT250
KEWR 
8nm W 
232209Z 2322/2424 10006KT P6SM VCSH SCT035 BKN045 TEMPO 2322/2323 -SHRA FEW025 BKN035 FM240100 VRB04KT P6SM SCT035 BKN045 FM240400 04005KT P6SM BKN050 FM241000 01009KT P6SM SCT040 BKN100 FM241600 02009KT P6SM BKN050
KTEB 
10nm N 
232209Z 2322/2424 09005KT P6SM VCSH SCT030 BKN050 FM240100 VRB03KT P6SM BKN050 FM241100 01009KT P6SM SCT040 BKN050 FM241600 02009KT P6SM BKN050
KJFK 
12nm SE 
240115Z 2401/2506 06006KT 6SM -SHRA BKN015 FM240300 05006KT P6SM VCSH OVC025 FM240600 03006KT P6SM SCT025 BKN070 FM240800 02008KT P6SM BKN100 FM241000 02009KT P6SM SCT250 FM241600 04009KT P6SM FEW050 SCT250 FM241800 10009KT P6SM FEW050 SCT250 FM242000 16009KT P6SM FEW050 SCT250 FM250000 18004KT P6SM SCT250
NOTAMs
Click for the latest NOTAMs
NOTAMs are issued by the DoD/FAA and will open in a separate window not controlled by AirNav.

 

 
 

Would you like to see your business listed on this page?

 If your business provides an interesting product or service to pilots, flight crews, aircraft, or users of the One Police Plaza Heliport, you should consider listing it here.  To start the listing process, click on the button below
 
Add a business
 

Other Pages about One Police Plaza Heliport

Update a link
 
Copyright © AirNav, LLC. All rights reserved. Privacy Policy  Contact